.
WxDataArchive / Data Records for 2012-12-11
2012-12-10 December 2012 2012-12-12

Data Records for Tuesday, 11 December 2012

Time	Temp	Chill	HIndex	Humid	Dewpt	 Wind 	HiWind	WindDir	Rain 	Barom 
-----	----	-----	------	-----	-----	------	------	-------	-----	----- 
00:00	33.2	33.2	33.2	90	30.6	1	3	248	0.00	29.912 
00:05	33.2	33.2	33.2	90	30.6	0	5	248	0.00	29.912 
00:10	33.2	33.2	33.2	90	30.6	0	1	248	0.00	29.912 
00:15	33.2	33.2	33.2	90	30.6	0	1	248	0.00	29.898 
00:20	33.1	33.1	33.1	90	30.5	0	1	248	0.00	29.898 
00:25	33.1	33.1	33.1	90	30.5	0	2	248	0.00	29.898 
00:30	33.1	33.1	33.1	89	30.2	0	2	248	0.00	29.910 
00:35	33.1	33.1	33.1	90	30.5	0	3	248	0.00	29.910 
00:40	33.1	33.1	33.1	90	30.5	0	2	248	0.00	29.910 
00:45	33.1	33.1	33.1	90	30.5	0	1	248	0.00	29.912 
00:50	32.9	32.9	32.9	90	30.3	0	1	248	0.00	29.912 
00:55	32.9	32.9	32.9	90	30.3	0	3	248	0.00	29.912 
01:00	32.9	32.9	32.9	90	30.3	0	3	248	0.00	29.913 
01:05	32.9	32.9	32.9	90	30.3	0	3	248	0.00	29.913 
01:10	32.9	32.9	32.9	90	30.3	0	1	248	0.00	29.913 
01:15	32.9	32.9	32.9	89	30.0	0	1	248	0.00	29.910 
01:20	32.9	32.9	32.9	89	30.0	0	3	248	0.00	29.910 
01:25	32.9	32.9	32.9	89	30.0	0	3	248	0.00	29.910 
01:30	32.9	32.9	32.9	89	30.0	0	1	248	0.00	29.910 
01:35	32.9	32.9	32.9	89	30.0	1	2	248	0.00	29.910 
01:40	32.9	32.9	32.9	89	30.0	0	2	248	0.00	29.910 
01:45	32.8	32.8	32.8	89	29.9	0	2	248	0.00	29.910 
01:50	32.8	32.8	32.8	89	29.9	1	3	292	0.00	29.910 
01:55	32.7	32.7	32.7	89	29.8	1	3	248	0.00	29.910 
02:00	32.7	32.7	32.7	89	29.8	1	3	270	0.00	29.911 
02:05	32.5	32.5	32.5	88	29.3	1	3	270	0.00	29.911 
02:10	32.5	32.5	32.5	88	29.3	0	2	270	0.00	29.911 
02:15	32.5	32.5	32.5	88	29.3	0	2	270	0.00	29.913 
02:20	32.4	32.4	32.4	88	29.3	0	1	270	0.00	29.913 
02:25	32.4	32.4	32.4	88	29.3	0	1	270	0.00	29.913 
02:30	32.4	32.4	32.4	88	29.3	0	1	270	0.00	29.925 
02:35	32.4	32.4	32.4	89	29.5	0	1	270	0.00	29.925 
02:40	32.4	32.4	32.4	89	29.5	0	0	---	0.00	29.925 
02:45	32.5	32.5	32.5	89	29.6	0	1	270	0.00	29.928 
02:50	32.5	32.5	32.5	89	29.6	0	2	270	0.00	29.928 
02:55	32.5	32.5	32.5	89	29.6	0	2	270	0.00	29.928 
03:00	32.5	32.5	32.5	89	29.6	0	1	270	0.00	29.939 
03:05	32.5	32.5	32.5	89	29.6	0	1	270	0.00	29.939 
03:10	32.5	32.5	32.5	89	29.6	0	1	270	0.00	29.939 
03:15	32.5	32.5	32.5	89	29.6	0	0	---	0.00	29.944 
03:20	32.5	32.5	32.5	89	29.6	0	3	270	0.00	29.944 
03:25	32.5	32.5	32.5	89	29.6	0	2	270	0.00	29.944 
03:30	32.5	32.5	32.5	89	29.6	0	3	270	0.00	29.954 
03:35	32.7	32.7	32.7	89	29.8	0	1	270	0.00	29.954 
03:40	32.5	32.5	32.5	89	29.6	0	4	248	0.00	29.954 
03:45	32.5	32.5	32.5	89	29.6	1	4	248	0.00	29.958 
03:50	32.5	32.5	32.5	89	29.6	1	4	248	0.00	29.958 
03:55	32.5	32.5	32.5	89	29.6	0	2	248	0.00	29.958 
04:00	32.5	32.5	32.5	88	29.3	1	2	248	0.00	29.958 
04:05	32.5	32.5	32.5	88	29.3	1	3	248	0.00	29.958 
04:10	32.5	32.5	32.5	88	29.3	0	2	248	0.00	29.958 
04:15	32.5	32.5	32.5	88	29.3	0	1	248	0.00	29.959 
04:20	32.4	32.4	32.4	88	29.3	1	5	248	0.00	29.959 
04:25	32.4	32.4	32.4	87	29.0	1	3	270	0.00	29.959 
04:30	32.2	32.2	32.2	87	28.8	1	3	270	0.00	29.962 
04:35	32.2	32.2	32.2	87	28.8	1	3	270	0.00	29.962 
04:40	32.1	32.1	32.1	87	28.7	1	4	248	0.00	29.962 
04:45	31.9	31.9	31.9	87	28.5	1	4	248	0.00	29.961 
04:50	31.9	31.9	31.9	87	28.5	2	6	248	0.00	29.961 
04:55	31.8	31.8	31.8	88	28.7	1	4	248	0.00	29.961 
05:00	31.8	31.8	31.8	88	28.7	1	3	248	0.00	29.972 
05:05	31.6	31.6	31.6	88	28.5	1	3	248	0.00	29.972 
05:10	31.6	31.6	31.6	88	28.5	1	4	270	0.00	29.972 
05:15	31.6	31.6	31.6	88	28.5	1	5	248	0.00	29.975 
05:20	31.5	31.5	31.5	88	28.4	1	4	248	0.00	29.975 
05:25	31.5	31.5	31.5	88	28.4	0	1	248	0.00	29.975 
05:30	31.5	31.5	31.5	88	28.4	1	3	248	0.00	29.976 
05:35	31.3	31.3	31.3	88	28.2	1	4	248	0.00	29.976 
05:40	31.2	31.2	31.2	88	28.1	1	3	248	0.00	29.976 
05:45	31.0	31.0	31.0	89	28.1	1	4	248	0.00	29.981 
05:50	30.9	30.9	30.9	89	28.0	1	4	248	0.00	29.981 
05:55	30.4	30.4	30.4	89	27.6	1	3	248	0.00	29.981 
06:00	30.1	30.1	30.1	89	27.3	1	4	248	0.00	29.990 
06:05	30.0	30.0	30.0	89	27.2	1	3	248	0.00	29.990 
06:10	29.8	29.8	29.8	89	27.0	1	2	248	0.00	29.990 
06:15	29.7	29.7	29.7	89	26.9	1	4	248	0.00	29.995 
06:20	29.5	29.5	29.5	89	26.7	0	2	248	0.00	29.995 
06:25	29.5	29.5	29.5	89	26.7	0	2	248	0.00	29.995 
06:30	29.4	29.4	29.4	89	26.6	0	1	248	0.00	30.004 
06:35	29.3	29.3	29.3	89	26.5	1	2	248	0.00	30.004 
06:40	29.3	29.3	29.3	89	26.5	0	3	248	0.00	30.004 
06:45	29.1	29.1	29.1	88	26.0	0	1	248	0.00	30.008 
06:50	29.0	29.0	29.0	88	25.9	0	1	248	0.00	30.008 
06:55	28.8	28.8	28.8	88	25.7	0	2	248	0.00	30.008 
07:00	28.7	28.7	28.7	88	25.6	1	3	248	0.00	30.011 
07:05	28.7	28.7	28.7	88	25.6	0	3	248	0.00	30.011 
07:10	28.7	28.7	28.7	88	25.6	0	2	248	0.00	30.011 
07:15	28.7	28.7	28.7	88	25.6	0	2	248	0.00	30.023 
07:20	28.5	28.5	28.5	88	25.4	1	3	248	0.00	30.023 
07:25	28.5	28.5	28.5	88	25.4	1	4	248	0.00	30.023 
07:30	28.5	28.5	28.5	88	25.4	1	3	248	0.00	30.025 
07:35	28.5	28.5	28.5	88	25.4	1	3	248	0.00	30.025 
07:40	28.5	28.5	28.5	88	25.4	1	3	248	0.00	30.025 
07:45	28.4	28.4	28.4	88	25.3	0	2	248	0.00	30.035 
07:50	28.4	28.4	28.4	88	25.3	0	2	248	0.00	30.035 
07:55	28.2	28.2	28.2	88	25.1	0	1	248	0.00	30.035 
08:00	28.1	28.1	28.1	87	24.7	1	4	248	0.00	30.041 
08:05	28.1	28.1	28.1	87	24.7	1	3	248	0.00	30.041 
08:10	28.1	28.1	28.1	87	24.7	1	4	270	0.00	30.041 
08:15	28.2	28.2	28.2	87	24.8	1	3	270	0.00	30.047 
08:20	28.2	28.2	28.2	87	24.8	0	2	270	0.00	30.047 
08:25	28.4	28.4	28.4	87	25.0	0	3	270	0.00	30.047 
08:30	28.4	28.4	28.4	87	25.0	0	2	248	0.00	30.057 
08:35	28.5	28.5	28.5	86	24.9	0	2	248	0.00	30.057 
08:40	28.5	28.5	28.5	86	24.9	0	2	248	0.00	30.057 
08:45	28.5	28.5	28.5	86	24.9	1	4	248	0.00	30.057 
08:50	28.5	28.5	28.5	86	24.9	0	2	248	0.00	30.057 
08:55	28.5	28.5	28.5	86	24.9	0	2	248	0.00	30.057 
09:00	28.7	28.7	28.7	85	24.8	0	1	248	0.00	30.067 
09:05	28.8	28.8	28.8	85	24.9	1	4	248	0.00	30.067 
09:10	28.8	28.8	28.8	84	24.6	2	5	248	0.00	30.067 
09:15	29.0	29.0	29.0	84	24.8	1	4	248	0.00	30.072 
09:20	29.0	29.0	29.0	82	24.2	2	7	248	0.00	30.072 
09:25	29.0	29.0	29.0	81	23.9	1	3	270	0.00	30.072 
09:30	29.0	29.0	29.0	80	23.6	1	3	270	0.00	30.074 
09:35	29.0	29.0	29.0	80	23.6	1	4	248	0.00	30.074 
09:40	29.1	29.1	29.1	80	23.7	1	2	248	0.00	30.074 
09:45	29.4	29.4	29.4	81	24.3	1	3	248	0.00	30.084 
09:50	29.5	29.5	29.5	80	24.1	2	6	248	0.00	30.084 
09:55	29.5	29.5	29.5	79	23.8	1	4	248	0.00	30.084 
10:00	29.5	29.5	29.5	79	23.8	1	5	248	0.00	30.088 
10:05	29.7	29.7	29.7	78	23.7	1	4	248	0.00	30.088 
10:10	29.7	29.7	29.7	77	23.4	2	5	248	0.00	30.088 
10:15	29.5	29.5	29.5	77	23.2	1	4	248	0.00	30.087 
10:20	29.7	29.7	29.7	78	23.7	0	2	248	0.00	30.087 
10:25	29.7	29.7	29.7	78	23.7	1	4	248	0.00	30.087 
10:30	30.0	30.0	30.0	78	24.0	0	2	248	0.00	30.089 
10:35	30.6	30.6	30.6	78	24.6	1	4	248	0.00	30.089 
10:40	31.0	31.0	31.0	77	24.7	1	4	248	0.00	30.089 
10:45	31.2	31.2	31.2	75	24.2	1	5	248	0.00	30.096 
10:50	31.2	31.2	31.2	75	24.2	1	5	248	0.00	30.096 
10:55	31.2	31.2	31.2	74	23.9	1	6	270	0.00	30.096 
11:00	31.0	31.0	31.0	73	23.4	2	7	248	0.00	30.098 
11:05	30.9	30.9	30.9	73	23.3	1	4	248	0.00	30.098 
11:10	30.9	30.9	30.9	72	23.0	2	5	248	0.00	30.098 
11:15	31.0	31.0	31.0	72	23.1	1	6	248	0.00	30.102 
11:20	31.2	31.2	31.2	70	22.6	3	9	270	0.00	30.102 
11:25	31.6	31.6	31.6	71	23.3	1	6	248	0.00	30.102 
11:30	32.1	32.1	32.1	70	23.4	1	5	248	0.01	30.092 
11:35	32.8	32.8	32.8	70	24.1	1	6	248	0.00	30.092 
11:40	32.8	32.8	32.8	69	23.8	1	4	248	0.00	30.092 
11:45	32.8	32.8	32.8	68	23.4	2	10	248	0.00	30.093 
11:50	32.4	32.4	32.4	66	22.3	2	7	248	0.00	30.093 
11:55	32.2	32.2	32.2	67	22.5	1	5	248	0.00	30.093 
12:00	32.5	32.5	32.5	68	23.1	2	5	248	0.00	30.086 
12:05	32.8	32.8	32.8	68	23.4	1	6	248	0.00	30.086 
12:10	32.9	32.9	32.9	67	23.2	1	5	248	0.00	30.086 
12:15	32.5	32.5	32.5	64	21.7	3	7	248	0.00	30.092 
12:20	32.2	32.2	32.2	64	21.4	1	5	248	0.00	30.092 
12:25	31.8	31.8	31.8	64	21.0	2	6	225	0.00	30.092 
12:30	31.6	31.6	31.6	65	21.2	2	7	248	0.00	30.091 
12:35	31.6	31.6	31.6	65	21.2	1	7	248	0.00	30.091 
12:40	31.5	31.5	31.5	66	21.5	2	5	248	0.00	30.091 
12:45	31.5	31.5	31.5	66	21.5	1	3	248	0.00	30.089 
12:50	31.3	31.3	31.3	66	21.3	1	4	248	0.00	30.089 
12:55	31.2	31.2	31.2	65	20.8	1	5	248	0.00	30.089 
13:00	31.3	31.3	31.3	66	21.3	1	5	248	0.00	30.088 
13:05	31.3	31.3	31.3	65	20.9	2	9	248	0.00	30.088 
13:10	31.3	31.3	31.3	65	20.9	2	6	248	0.00	30.088 
13:15	31.3	31.3	31.3	65	20.9	3	10	248	0.00	30.088 
13:20	31.3	31.3	31.3	65	20.9	3	6	248	0.00	30.088 
13:25	31.5	31.5	31.5	66	21.5	1	6	248	0.00	30.088 
13:30	31.5	31.5	31.5	66	21.5	1	7	225	0.00	30.092 
13:35	31.5	31.5	31.5	64	20.7	2	9	248	0.00	30.092 
13:40	31.5	31.5	31.5	63	20.4	2	9	248	0.00	30.092 
13:45	31.6	31.6	31.6	64	20.8	1	4	248	0.00	30.092 
13:50	31.9	31.9	31.9	65	21.5	2	7	248	0.00	30.092 
13:55	31.9	31.9	31.9	64	21.1	2	7	248	0.00	30.092 
14:00	32.2	32.2	32.2	63	21.0	1	4	225	0.00	30.087 
14:05	32.4	32.4	32.4	62	20.9	1	6	248	0.00	30.087 
14:10	32.5	32.5	32.5	62	20.9	1	4	248	0.00	30.087 
14:15	32.5	32.5	32.5	61	20.6	2	6	248	0.00	30.083 
14:20	32.5	32.5	32.5	58	19.4	2	7	248	0.00	30.083 
14:25	32.5	32.5	32.5	61	20.6	2	5	248	0.00	30.083 
14:30	32.2	32.2	32.2	60	19.9	2	6	248	0.00	30.087 
14:35	32.5	32.5	32.5	61	20.6	1	5	248	0.00	30.087 
14:40	32.4	32.4	32.4	61	20.5	2	7	248	0.00	30.087 
14:45	32.2	32.2	32.2	61	20.3	1	4	248	0.00	30.088 
14:50	32.2	32.2	32.2	62	20.7	0	1	248	0.00	30.088 
14:55	32.2	32.2	32.2	61	20.3	1	5	248	0.00	30.088 
15:00	32.2	32.2	32.2	62	20.7	1	5	248	0.00	30.085 
15:05	32.7	32.7	32.7	62	21.1	1	4	248	0.00	30.085 
15:10	32.8	32.8	32.8	61	20.9	2	6	248	0.00	30.085 
15:15	32.9	32.9	32.9	60	20.6	1	5	248	0.00	30.084 
15:20	33.4	33.4	33.4	60	21.0	2	7	248	0.00	30.084 
15:25	33.2	33.2	33.2	60	20.8	1	4	225	0.00	30.084 
15:30	32.8	32.8	32.8	60	20.5	1	6	248	0.00	30.086 
15:35	32.5	32.5	32.5	61	20.6	2	6	248	0.00	30.086 
15:40	32.4	32.4	32.4	61	20.5	2	5	270	0.00	30.086 
15:45	32.7	32.7	32.7	60	20.4	2	6	248	0.00	30.087 
15:50	32.8	32.8	32.8	60	20.5	1	4	248	0.00	30.087 
15:55	32.7	32.7	32.7	60	20.4	2	6	248	0.00	30.087 
16:00	32.8	32.8	32.8	61	20.9	1	3	270	0.00	30.089 
16:05	32.8	32.8	32.8	60	20.5	2	8	248	0.00	30.089 
16:10	32.9	32.9	32.9	60	20.6	1	4	248	0.00	30.089 
16:15	32.8	32.8	32.8	58	19.7	2	7	248	0.00	30.097 
16:20	32.7	32.7	32.7	59	20.0	2	8	248	0.00	30.097 
16:25	32.5	32.5	32.5	60	20.2	1	4	248	0.00	30.097 
16:30	32.5	32.5	32.5	60	20.2	1	5	248	0.00	30.101 
16:35	32.4	32.4	32.4	60	20.1	1	5	248	0.00	30.101 
16:40	32.2	32.2	32.2	61	20.3	0	2	248	0.00	30.101 
16:45	32.1	32.1	32.1	61	20.2	1	4	248	0.00	30.103 
16:50	32.1	32.1	32.1	61	20.2	2	5	248	0.00	30.103 
16:55	31.9	31.9	31.9	61	20.0	1	4	248	0.00	30.103 
17:00	31.8	31.8	31.8	62	20.3	0	2	248	0.00	30.109 
17:05	31.5	31.5	31.5	62	20.0	1	4	248	0.00	30.109 
17:10	31.5	31.5	31.5	62	20.0	1	5	248	0.00	30.109 
17:15	31.3	31.3	31.3	63	20.2	0	3	248	0.00	30.117 
17:20	31.2	31.2	31.2	63	20.1	0	3	248	0.00	30.117 
17:25	31.0	31.0	31.0	64	20.3	1	4	248	0.00	30.117 
17:30	31.0	31.0	31.0	65	20.6	0	2	248	0.00	30.122 
17:35	30.9	30.9	30.9	65	20.5	0	5	248	0.00	30.122 
17:40	30.7	30.7	30.7	65	20.3	1	3	248	0.00	30.122 
17:45	30.7	30.7	30.7	65	20.3	0	2	248	0.00	30.123 
17:50	30.7	30.7	30.7	66	20.7	0	2	248	0.00	30.123 
17:55	30.6	30.6	30.6	66	20.6	0	3	248	0.00	30.123 
18:00	30.4	30.4	30.4	66	20.4	0	2	248	0.00	30.124 
18:05	30.3	30.3	30.3	67	20.7	0	1	248	0.00	30.124 
18:10	30.1	30.1	30.1	68	20.8	0	1	248	0.00	30.124 
18:15	30.0	30.0	30.0	68	20.7	0	2	248	0.00	30.126 
18:20	29.8	29.8	29.8	69	20.9	0	1	248	0.00	30.126 
18:25	29.7	29.7	29.7	69	20.8	0	0	---	0.00	30.126 
18:30	29.5	29.5	29.5	70	20.9	0	1	248	0.00	30.136 
18:35	29.3	29.3	29.3	70	20.8	0	0	---	0.00	30.136 
18:40	29.1	29.1	29.1	71	20.9	0	0	---	0.00	30.136 
18:45	29.0	29.0	29.0	71	20.8	0	0	---	0.00	30.138 
18:50	28.7	28.7	28.7	72	20.8	0	0	---	0.00	30.138 
18:55	28.5	28.5	28.5	73	21.0	0	0	---	0.00	30.138 
19:00	28.2	28.2	28.2	73	20.7	0	0	---	0.00	30.142 
19:05	28.1	28.1	28.1	74	20.9	0	0	---	0.00	30.142 
19:10	27.9	27.9	27.9	75	21.0	0	0	---	0.00	30.142 
19:15	27.8	27.8	27.8	75	20.9	0	1	248	0.00	30.145 
19:20	27.6	27.6	27.6	76	21.0	0	0	---	0.00	30.145 
19:25	27.5	27.5	27.5	77	21.3	0	0	---	0.00	30.145 
19:30	27.3	27.3	27.3	77	21.1	0	0	---	0.00	30.153 
19:35	27.2	27.2	27.2	77	21.0	0	0	---	0.00	30.153 
19:40	27.0	27.0	27.0	78	21.1	0	0	---	0.00	30.153 
19:45	27.0	27.0	27.0	79	21.4	0	1	248	0.00	30.150 
19:50	27.0	27.0	27.0	79	21.4	0	0	---	0.00	30.150 
19:55	27.0	27.0	27.0	79	21.4	0	0	---	0.00	30.150 
20:00	26.9	26.9	26.9	80	21.6	0	0	---	0.00	30.156 
20:05	26.9	26.9	26.9	80	21.6	0	0	---	0.00	30.156 
20:10	26.9	26.9	26.9	80	21.6	0	1	248	0.00	30.156 
20:15	26.9	26.9	26.9	81	21.9	0	1	248	0.00	30.150 
20:20	26.9	26.9	26.9	81	21.9	0	0	---	0.00	30.150 
20:25	26.9	26.9	26.9	82	22.2	0	1	248	0.00	30.150 
20:30	27.0	27.0	27.0	82	22.3	0	1	248	0.00	30.156 
20:35	27.2	27.2	27.2	82	22.4	0	0	---	0.00	30.156 
20:40	27.2	27.2	27.2	82	22.4	0	1	248	0.00	30.156 
20:45	27.2	27.2	27.2	82	22.4	0	0	---	0.00	30.156 
20:50	27.2	27.2	27.2	83	22.7	0	1	248	0.00	30.156 
20:55	27.3	27.3	27.3	83	22.8	0	1	248	0.00	30.156 
21:00	27.3	27.3	27.3	83	22.8	0	1	248	0.00	30.165 
21:05	27.5	27.5	27.5	83	23.0	0	2	248	0.00	30.165 
21:10	27.5	27.5	27.5	83	23.0	0	1	248	0.00	30.165 
21:15	27.5	27.5	27.5	83	23.0	0	2	248	0.00	30.164 
21:20	27.5	27.5	27.5	83	23.0	0	1	248	0.00	30.164 
21:25	27.6	27.6	27.6	84	23.4	0	1	248	0.00	30.164 
21:30	27.6	27.6	27.6	84	23.4	0	2	248	0.00	30.166 
21:35	27.6	27.6	27.6	83	23.1	0	1	248	0.00	30.166 
21:40	27.8	27.8	27.8	83	23.3	0	2	248	0.00	30.166 
21:45	27.6	27.6	27.6	83	23.1	0	1	248	0.00	30.170 
21:50	27.6	27.6	27.6	83	23.1	0	1	248	0.00	30.170 
21:55	27.6	27.6	27.6	83	23.1	0	2	248	0.00	30.170 
22:00	27.6	27.6	27.6	83	23.1	0	1	248	0.00	30.172 
22:05	27.5	27.5	27.5	83	23.0	0	1	248	0.00	30.172 
22:10	27.3	27.3	27.3	83	22.8	0	1	248	0.00	30.172 
22:15	27.3	27.3	27.3	84	23.1	0	1	248	0.00	30.178 
22:20	27.2	27.2	27.2	84	23.0	0	1	248	0.00	30.178 
22:25	27.2	27.2	27.2	84	23.0	0	0	---	0.00	30.178 
22:30	27.0	27.0	27.0	84	22.8	0	1	248	0.00	30.184 
22:35	26.9	26.9	26.9	84	22.7	0	0	---	0.00	30.184 
22:40	26.7	26.7	26.7	84	22.5	0	0	---	0.00	30.184 
22:45	26.7	26.7	26.7	84	22.5	0	1	248	0.00	30.187 
22:50	26.6	26.6	26.6	84	22.4	0	0	---	0.00	30.187 
22:55	26.4	26.4	26.4	84	22.2	0	0	---	0.00	30.187 
23:00	26.4	26.4	26.4	84	22.2	0	1	248	0.00	30.202 
23:05	26.3	26.3	26.3	84	22.1	0	1	248	0.00	30.202 
23:10	26.3	26.3	26.3	84	22.1	0	1	248	0.00	30.202 
23:15	26.3	26.3	26.3	85	22.4	0	1	248	0.00	30.203 
23:20	26.1	26.1	26.1	85	22.2	0	0	---	0.00	30.203 
23:25	26.1	26.1	26.1	85	22.2	0	0	---	0.00	30.203 
23:30	26.0	26.0	26.0	85	22.1	0	0	---	0.00	30.211 
23:35	25.8	25.8	25.8	85	21.9	0	2	248	0.00	30.211 
23:40	26.0	26.0	26.0	85	22.1	0	0	---	0.00	30.211 
23:45	26.0	26.0	26.0	86	22.4	0	2	248	0.00	30.217 
23:50	26.1	26.1	26.1	86	22.5	0	1	248	0.00	30.217 
23:55	26.1	26.1	26.1	86	22.5	0	0	---	0.00	30.217 

CoCoRaHS
IN-AL-39
A2 Web Hosting
Creative Commons License
GoDaddy
search engine by freefind advanced

loaded 2018-11-14 04:19:16 • last modified 2010-11-18 10:43:29
Privacy PolicyDisclaimer
• wx.awcolley.com is powered by PmWiki v.2002016 •
• all content (unless otherwise noted) © 2018 A W Colley